Time;durP1;ratioP1;P1;durP2;ratioP2;P2;SDS_P1;SDS_P2;PMS_P1;PMS_P2;Temp;Humidity;BMP_temperature;BMP_pressure;BME280_temperature;BME280_humidity;BME280_pressure;Samples;Min_cycle;Max_cycle;Signal;HPM_P1;HPM_P2
2023/08/04 00:01:57;;;;;;;;;;;;;;;21.83;59.82;100018.72;5061532;28;5037;-63
2023/08/04 00:04:24;;;;;;;;;;;;;;;21.81;59.91;100012.91;5061333;28;4058;-63
2023/08/04 00:06:51;;;;;;;;;;;;;;;21.81;59.69;100012.91;5060499;28;4107;-63
2023/08/04 00:09:17;;;;;;;;;;;;;;;21.82;59.74;100020.13;5060906;28;3981;-63
2023/08/04 00:11:43;;;;;;;;;;;;;;;21.81;59.69;100024.44;5061305;28;4262;-72
2023/08/04 00:14:11;;;;;;;;;;;;;;;21.81;59.56;100030.22;5061055;28;4118;-72
2023/08/04 00:16:37;;;;;;;;;;;;;;;21.82;59.77;100040.31;5061506;28;4170;-72
2023/08/04 00:19:03;;;;;;;;;;;;;;;21.82;59.90;100046.06;5060245;28;5117;-72
2023/08/04 00:21:30;;;;;;;;;;;;;;;21.82;59.71;100043.19;5030931;28;4288;-72
2023/08/04 00:23:56;;;;;;;;;;;;;;;21.81;59.87;100053.25;5059633;28;4124;-72
2023/08/04 00:26:23;;;;;;;;;;;;;;;21.81;59.87;100039.59;5062190;28;4421;-72
2023/08/04 00:28:49;;;;;;;;;;;;;;;21.83;59.53;100059.06;5060102;28;4075;-72
2023/08/04 00:31:16;;;;;;;;;;;;;;;21.82;59.90;100063.38;5060672;28;3991;-72
2023/08/04 00:33:43;;;;;;;;;;;;;;;21.81;59.58;100064.78;5060331;28;4145;-72
2023/08/04 00:36:09;;;;;;;;;;;;;;;21.81;59.90;100064.78;5061234;28;4501;-72
2023/08/04 00:38:35;;;;;;;;;;;;;;;21.81;59.66;100059.03;5062154;28;4149;-72
2023/08/04 00:41:02;;;;;;;;;;;;;;;21.81;59.59;100064.78;5060318;28;3992;-72
2023/08/04 00:43:28;;;;;;;;;;;;;;;21.80;59.92;100069.06;5060230;28;4213;-72
2023/08/04 00:45:55;;;;;;;;;;;;;;;21.81;59.62;100064.78;5060762;28;4085;-72
2023/08/04 00:48:21;;;;;;;;;;;;;;;21.81;59.87;100070.56;5060342;28;3969;-72
2023/08/04 00:50:47;;;;;;;;;;;;;;;21.81;59.64;100071.28;5015109;28;4117;-72
2023/08/04 00:53:14;;;;;;;;;;;;;;;21.81;59.64;100071.28;5047076;28;4075;-71
2023/08/04 00:55:42;;;;;;;;;;;;;;;21.82;59.51;100074.91;5060636;28;4280;-72
2023/08/04 00:58:08;;;;;;;;;;;;;;;21.81;59.83;100073.44;5060564;28;4054;-72
2023/08/04 01:00:35;;;;;;;;;;;;;;;21.80;59.75;100081.31;5057898;28;4166;-70
2023/08/04 01:03:01;;;;;;;;;;;;;;;21.81;59.73;100064.78;5060999;28;3999;-72
2023/08/04 01:05:31;;;;;;;;;;;;;;;21.80;59.61;100072.69;5060921;28;4053;-71
2023/08/04 01:08:06;;;;;;;;;;;;;;;21.82;59.65;100072.00;5060798;28;4067;-72
2023/08/04 01:10:35;;;;;;;;;;;;;;;21.82;59.65;100074.91;5040718;28;4181;-72
2023/08/04 01:13:03;;;;;;;;;;;;;;;21.80;59.97;100074.84;5031321;28;5268;-72
2023/08/04 01:15:30;;;;;;;;;;;;;;;21.80;59.82;100080.59;5060148;28;4101;-72
2023/08/04 01:17:56;;;;;;;;;;;;;;;21.80;59.68;100087.09;5059302;28;4064;-72
2023/08/04 01:20:23;;;;;;;;;;;;;;;21.81;59.66;100093.63;5060381;28;4161;-72
2023/08/04 01:22:50;;;;;;;;;;;;;;;21.80;59.75;100098.63;5041303;28;4316;-72
2023/08/04 01:25:16;;;;;;;;;;;;;;;21.80;59.64;100092.13;5061607;28;4019;-72
2023/08/04 01:27:50;;;;;;;;;;;;;;;21.82;59.75;100097.94;5055657;28;4529;-72
2023/08/04 01:30:20;;;;;;;;;;;;;;;21.80;59.75;100103.66;5055397;28;4083;-72
2023/08/04 01:32:46;;;;;;;;;;;;;;;21.80;59.90;100103.66;5029943;28;3979;-72
2023/08/04 01:35:13;;;;;;;;;;;;;;;21.79;59.63;100113.72;5040882;28;3951;-72
2023/08/04 01:37:40;;;;;;;;;;;;;;;21.79;59.72;100120.22;5057855;28;4060;-71
2023/08/04 01:40:06;;;;;;;;;;;;;;;21.80;59.62;100126.72;5049666;28;4222;-72
2023/08/04 01:42:32;;;;;;;;;;;;;;;21.81;59.62;100139.72;5059075;28;3975;-72
2023/08/04 01:44:59;;;;;;;;;;;;;;;21.81;59.64;100151.25;5058732;28;4153;-72
2023/08/04 01:47:25;;;;;;;;;;;;;;;21.80;59.58;100149.75;5060636;28;4154;-72
2023/08/04 01:49:52;;;;;;;;;;;;;;;21.80;59.68;100164.91;5059082;28;4084;-72
2023/08/04 01:52:18;;;;;;;;;;;;;;;21.81;60.01;100169.25;5057788;28;3909;-72
2023/08/04 01:54:45;;;;;;;;;;;;;;;21.79;59.94;100180.00;5059206;28;3954;-72
2023/08/04 01:57:11;;;;;;;;;;;;;;;21.79;59.64;100188.66;5059729;28;5122;-72
2023/08/04 01:59:39;;;;;;;;;;;;;;;21.80;59.67;100195.88;5041651;28;4541;-72
2023/08/04 02:02:06;;;;;;;;;;;;;;;21.80;59.59;100201.63;5057541;28;4202;-72
2023/08/04 02:04:32;;;;;;;;;;;;;;;21.80;60.00;100195.88;5058729;28;4371;-72
2023/08/04 02:06:58;;;;;;;;;;;;;;;21.79;59.67;100198.03;5059384;28;4091;-72
2023/08/04 02:09:27;;;;;;;;;;;;;;;21.80;59.77;100210.28;5028390;28;4962;-72
2023/08/04 02:11:55;;;;;;;;;;;;;;;21.80;59.77;100224.69;5064105;28;6647;-72
2023/08/04 02:14:22;;;;;;;;;;;;;;;21.80;59.95;100221.81;5064167;28;4159;-72
2023/08/04 02:16:48;;;;;;;;;;;;;;;21.79;59.61;100231.88;5063020;28;4320;-72
2023/08/04 02:19:15;;;;;;;;;;;;;;;21.80;59.75;100231.19;5062526;28;4234;-72
2023/08/04 02:21:41;;;;;;;;;;;;;;;21.80;59.71;100236.94;5062433;28;4113;-72
2023/08/04 02:24:07;;;;;;;;;;;;;;;21.80;59.92;100230.44;5063385;28;4199;-72
2023/08/04 02:26:34;;;;;;;;;;;;;;;21.79;59.68;100237.63;5062968;28;4143;-71
2023/08/04 02:29:02;;;;;;;;;;;;;;;21.79;59.91;100240.53;5063113;28;5154;-72
2023/08/04 02:31:29;;;;;;;;;;;;;;;21.78;59.76;100239.75;5063431;28;4099;-72
2023/08/04 02:33:56;;;;;;;;;;;;;;;21.79;59.55;100240.53;5062928;28;4008;-72
2023/08/04 02:36:22;;;;;;;;;;;;;;;21.79;59.59;100240.53;5062061;28;4081;-72
2023/08/04 02:38:48;;;;;;;;;;;;;;;21.80;59.65;100239.09;5062726;28;3953;-71
2023/08/04 02:41:16;;;;;;;;;;;;;;;21.79;59.58;100234.75;5062999;28;3925;-72
2023/08/04 02:43:42;;;;;;;;;;;;;;;21.78;59.61;100234.00;5062151;28;4500;-72
2023/08/04 02:46:10;;;;;;;;;;;;;;;21.79;59.66;100231.88;5063382;28;4221;-72
2023/08/04 02:48:36;;;;;;;;;;;;;;;21.79;59.92;100231.88;5046362;28;4482;-71
2023/08/04 02:51:09;;;;;;;;;;;;;;;21.78;59.83;100241.91;5063101;28;4174;-72
2023/08/04 02:53:36;;;;;;;;;;;;;;;21.78;59.80;100230.38;5061292;28;4289;-72
2023/08/04 02:56:10;;;;;;;;;;;;;;;21.78;59.54;100225.34;5036919;28;4021;-72
2023/08/04 02:58:36;;;;;;;;;;;;;;;21.77;59.92;100223.16;5061568;28;4233;-72
2023/08/04 03:01:03;;;;;;;;;;;;;;;21.78;59.94;100233.28;5061362;28;4100;-72
2023/08/04 03:03:30;;;;;;;;;;;;;;;21.78;59.75;100245.53;5063022;28;4308;-72
2023/08/04 03:05:57;;;;;;;;;;;;;;;21.78;59.56;100250.56;5061530;28;4118;-72
2023/08/04 03:08:24;;;;;;;;;;;;;;;21.77;59.90;100249.09;5062363;28;4335;-72
2023/08/04 03:10:50;;;;;;;;;;;;;;;21.79;59.88;100257.81;5061128;28;4371;-72
2023/08/04 03:13:17;;;;;;;;;;;;;;;21.78;59.92;100256.31;5063820;28;4198;-71
2023/08/04 03:15:43;;;;;;;;;;;;;;;21.75;59.62;100264.91;5062628;28;3903;-72
2023/08/04 03:18:10;;;;;;;;;;;;;;;21.77;59.81;100254.88;5061671;28;3997;-72
2023/08/04 03:20:37;;;;;;;;;;;;;;;21.76;59.75;100259.88;5061697;28;4125;-71
2023/08/04 03:23:04;;;;;;;;;;;;;;;21.78;59.94;100259.22;5062507;28;4276;-72
2023/08/04 03:25:30;;;;;;;;;;;;;;;21.78;59.69;100262.09;5061884;28;4158;-72
2023/08/04 03:27:56;;;;;;;;;;;;;;;21.78;59.53;100264.97;5060519;28;4047;-72
2023/08/04 03:30:23;;;;;;;;;;;;;;;21.77;59.55;100269.28;5061578;28;3917;-72
2023/08/04 03:32:49;;;;;;;;;;;;;;;21.77;59.83;100263.50;5063362;28;3998;-72
2023/08/04 03:35:16;;;;;;;;;;;;;;;21.77;59.64;100260.63;5061523;28;4144;-72
2023/08/04 03:37:42;;;;;;;;;;;;;;;21.77;59.92;100272.16;5062051;28;4173;-72
2023/08/04 03:40:09;;;;;;;;;;;;;;;21.75;59.56;100273.53;5060694;28;4463;-72
2023/08/04 03:42:36;;;;;;;;;;;;;;;21.77;59.69;100283.69;5061252;28;4467;-71
2023/08/04 03:45:02;;;;;;;;;;;;;;;21.75;59.85;100276.44;5063269;28;4187;-72
2023/08/04 03:47:29;;;;;;;;;;;;;;;21.76;59.89;100282.94;5061190;28;4037;-72
2023/08/04 03:49:56;;;;;;;;;;;;;;;21.75;59.72;100276.44;5061697;28;4517;-72
2023/08/04 03:52:23;;;;;;;;;;;;;;;21.75;59.94;100287.97;5061575;28;4121;-72
2023/08/04 03:54:50;;;;;;;;;;;;;;;21.77;59.61;100287.28;5060913;28;5186;-72
2023/08/04 03:57:16;;;;;;;;;;;;;;;21.75;59.75;100281.47;5061609;28;4141;-72
2023/08/04 03:59:42;;;;;;;;;;;;;;;21.75;59.75;100293.00;5062471;28;4142;-72
2023/08/04 04:02:09;;;;;;;;;;;;;;;21.75;59.80;100302.38;5060682;28;4053;-72
2023/08/04 04:04:35;;;;;;;;;;;;;;;21.75;59.60;100293.00;5061858;28;4467;-72
2023/08/04 04:07:02;;;;;;;;;;;;;;;21.75;59.68;100293.72;5061556;28;4142;-72
2023/08/04 04:09:28;;;;;;;;;;;;;;;21.74;59.72;100291.53;5061566;28;4156;-72
2023/08/04 04:11:54;;;;;;;;;;;;;;;21.74;59.57;100292.25;5061434;28;4251;-72
2023/08/04 04:14:21;;;;;;;;;;;;;;;21.73;59.50;100299.41;5061346;28;4142;-72
2023/08/04 04:16:47;;;;;;;;;;;;;;;21.75;59.70;100299.47;5060551;28;4102;-73
2023/08/04 04:19:14;;;;;;;;;;;;;;;21.75;59.50;100299.47;5060979;28;4295;-71
2023/08/04 04:21:40;;;;;;;;;;;;;;;21.74;59.83;100300.91;5060471;28;4101;-73
2023/08/04 04:24:07;;;;;;;;;;;;;;;21.74;59.56;100305.94;5060733;28;4435;-74
2023/08/04 04:26:33;;;;;;;;;;;;;;;21.74;59.70;100306.66;5060810;28;4125;-74
2023/08/04 04:28:59;;;;;;;;;;;;;;;21.74;59.83;100315.31;5061017;28;4338;-74
2023/08/04 04:31:26;;;;;;;;;;;;;;;21.74;59.86;100320.34;5059464;28;4348;-73
2023/08/04 04:33:52;;;;;;;;;;;;;;;21.73;59.63;100313.09;5061006;28;4287;-73
2023/08/04 04:36:19;;;;;;;;;;;;;;;21.73;59.77;100328.22;5060503;28;4155;-74
2023/08/04 04:38:45;;;;;;;;;;;;;;;21.72;59.60;100323.88;5043736;28;4112;-73
2023/08/04 04:41:11;;;;;;;;;;;;;;;21.72;59.82;100341.19;5060766;28;4476;-73
2023/08/04 04:43:38;;;;;;;;;;;;;;;21.72;59.71;100346.94;5060561;28;5102;-73
2023/08/04 04:46:05;;;;;;;;;;;;;;;21.73;59.93;100336.88;5060207;28;4112;-74
2023/08/04 04:48:31;;;;;;;;;;;;;;;21.74;59.54;100349.91;5060554;28;4095;-74
2023/08/04 04:50:57;;;;;;;;;;;;;;;21.75;59.64;100354.25;5058874;28;4279;-74
2023/08/04 04:53:24;;;;;;;;;;;;;;;21.73;59.63;100354.16;5061239;28;4157;-74
2023/08/04 04:55:50;;;;;;;;;;;;;;;21.73;59.47;100365.69;5060388;28;4537;-74
2023/08/04 04:58:17;;;;;;;;;;;;;;;21.73;59.90;100364.97;5060693;28;4300;-73
2023/08/04 05:00:43;;;;;;;;;;;;;;;21.73;59.57;100365.69;5058691;28;4135;-73
2023/08/04 05:03:10;;;;;;;;;;;;;;;21.72;59.61;100375.03;5059796;28;4525;-73
2023/08/04 05:05:37;;;;;;;;;;;;;;;21.71;59.85;100371.38;5059575;28;3996;-74
2023/08/04 05:08:04;;;;;;;;;;;;;;;21.73;59.79;100364.97;5060072;28;4180;-73
2023/08/04 05:10:30;;;;;;;;;;;;;;;21.73;59.60;100370.72;5060769;28;4282;-73
2023/08/04 05:12:57;;;;;;;;;;;;;;;21.72;59.68;100384.41;5060432;28;4176;-74
2023/08/04 05:15:23;;;;;;;;;;;;;;;21.72;59.65;100387.28;5059853;28;3986;-74
2023/08/04 05:17:50;;;;;;;;;;;;;;;21.71;59.58;100385.81;5059166;28;5178;-73
2023/08/04 05:20:16;;;;;;;;;;;;;;;21.73;59.89;100388.03;5060390;28;3988;-74
2023/08/04 05:22:43;;;;;;;;;;;;;;;21.74;59.47;100387.34;5058898;28;4296;-73
2023/08/04 05:25:09;;;;;;;;;;;;;;;21.73;59.48;100388.75;5059331;28;4138;-74
2023/08/04 05:27:37;;;;;;;;;;;;;;;21.73;59.82;100388.75;5059654;28;4169;-73
2023/08/04 05:30:03;;;;;;;;;;;;;;;21.73;59.48;100391.63;5059327;28;3938;-73
2023/08/04 05:32:30;;;;;;;;;;;;;;;21.74;59.55;100395.28;5058892;28;4301;-74
2023/08/04 05:34:56;;;;;;;;;;;;;;;21.74;59.50;100389.50;5060041;28;4134;-74
2023/08/04 05:37:23;;;;;;;;;;;;;;;21.72;59.74;100390.16;5060769;28;4010;-74
2023/08/04 05:39:50;;;;;;;;;;;;;;;21.73;59.81;100382.25;5060407;28;4126;-74
2023/08/04 05:42:16;;;;;;;;;;;;;;;21.72;59.55;100389.44;5059570;28;4159;-73
2023/08/04 05:44:42;;;;;;;;;;;;;;;21.73;59.68;100394.50;5059593;28;4015;-74
2023/08/04 05:47:09;;;;;;;;;;;;;;;21.71;59.52;100403.09;5060047;28;4162;-74
2023/08/04 05:49:35;;;;;;;;;;;;;;;21.72;59.85;100416.09;5058830;28;4094;-73
2023/08/04 05:52:02;;;;;;;;;;;;;;;21.73;59.53;100416.84;5058852;28;4068;-74
2023/08/04 05:54:28;;;;;;;;;;;;;;;21.72;59.46;100413.22;5059337;28;3907;-73
2023/08/04 05:56:55;;;;;;;;;;;;;;;21.73;59.79;100416.84;5059152;28;4270;-74
2023/08/04 05:59:21;;;;;;;;;;;;;;;21.73;59.56;100419.72;5060301;28;4228;-74
2023/08/04 06:01:51;;;;;;;;;;;;;;;21.73;59.53;100422.59;5058408;28;4437;-73
2023/08/04 06:04:18;;;;;;;;;;;;;;;21.72;59.84;100424.75;5060568;28;5176;-73
2023/08/04 06:06:47;;;;;;;;;;;;;;;21.72;59.47;100427.63;5059630;28;3987;-74
2023/08/04 06:09:14;;;;;;;;;;;;;;;21.71;59.48;100426.13;5060877;28;4002;-74
2023/08/04 06:11:40;;;;;;;;;;;;;;;21.73;59.66;100428.38;5059713;28;3951;-71
2023/08/04 06:14:07;;;;;;;;;;;;;;;21.71;59.43;100443.44;5059009;28;4050;-64
2023/08/04 06:16:33;;;;;;;;;;;;;;;21.72;59.55;100444.94;5059212;28;4185;-79
2023/08/04 06:19:00;;;;;;;;;;;;;;;21.72;59.57;100450.69;5058647;28;4066;-79
2023/08/04 06:21:27;;;;;;;;;;;;;;;21.72;59.73;100450.69;5058527;28;3881;-79
2023/08/04 06:23:54;;;;;;;;;;;;;;;21.71;59.43;100448.47;5041478;28;4044;-78
2023/08/04 06:26:20;;;;;;;;;;;;;;;21.71;59.51;100457.84;5035401;28;3971;-78
2023/08/04 06:28:49;;;;;;;;;;;;;;;21.72;59.59;100459.34;5058760;28;4225;-78
2023/08/04 06:31:16;;;;;;;;;;;;;;;21.71;59.82;100454.97;5059300;28;3991;-79
2023/08/04 06:33:43;;;;;;;;;;;;;;;21.71;59.36;100460.72;5057105;28;4044;-78
2023/08/04 06:36:09;;;;;;;;;;;;;;;21.71;59.51;100460.72;5058971;28;4241;-78
2023/08/04 06:38:36;;;;;;;;;;;;;;;21.72;59.70;100475.88;5058927;28;4123;-77
2023/08/04 06:41:02;;;;;;;;;;;;;;;21.73;59.37;100475.19;5058480;28;4093;-78
2023/08/04 06:43:28;;;;;;;;;;;;;;;21.73;59.54;100478.09;5058692;28;4616;-78
2023/08/04 06:45:55;;;;;;;;;;;;;;;21.73;59.35;100486.72;5059140;28;4968;-79
2023/08/04 06:48:24;;;;;;;;;;;;;;;21.72;59.73;100482.38;5058286;28;4328;-78
2023/08/04 06:50:51;;;;;;;;;;;;;;;21.73;59.52;100495.38;5059343;28;3998;-77
2023/08/04 06:53:17;;;;;;;;;;;;;;;21.74;59.38;100493.25;5029175;28;4305;-79
2023/08/04 06:55:44;;;;;;;;;;;;;;;21.73;59.40;100501.13;5062569;28;4408;-78
2023/08/04 06:58:13;;;;;;;;;;;;;;;21.74;59.68;100499.75;5051004;28;4182;-78
2023/08/04 07:00:40;;;;;;;;;;;;;;;21.73;59.63;100509.78;5062584;28;4257;-78
2023/08/04 07:03:08;;;;;;;;;;;;;;;21.74;59.48;100502.63;5061673;28;4555;-78
2023/08/04 07:05:34;;;;;;;;;;;;;;;21.73;59.41;100504.03;5062998;28;4043;-78
2023/08/04 07:08:01;;;;;;;;;;;;;;;21.73;59.37;100504.03;5061647;28;4385;-78
2023/08/04 07:10:27;;;;;;;;;;;;;;;21.73;59.38;100509.78;5062152;28;4357;-78
2023/08/04 07:12:54;;;;;;;;;;;;;;;21.74;59.49;100514.16;5062444;28;4761;-78
2023/08/04 07:15:20;;;;;;;;;;;;;;;21.74;59.37;100517.03;5061864;28;4829;-79
2023/08/04 07:17:47;;;;;;;;;;;;;;;21.73;59.51;100521.31;5039811;28;4160;-78
2023/08/04 07:20:13;;;;;;;;;;;;;;;21.74;59.63;100522.81;5062438;28;3887;-78
2023/08/04 07:22:41;;;;;;;;;;;;;;;21.73;59.70;100532.84;5062066;28;4138;-77
2023/08/04 07:25:07;;;;;;;;;;;;;;;21.74;59.54;100528.56;5063170;28;3901;-78
2023/08/04 07:27:33;;;;;;;;;;;;;;;21.74;59.39;100534.34;5050340;28;4188;-78
2023/08/04 07:30:00;;;;;;;;;;;;;;;21.73;59.33;100535.72;5063385;28;4209;-79
2023/08/04 07:32:26;;;;;;;;;;;;;;;21.73;59.59;100538.59;5038531;28;4082;-79
2023/08/04 07:34:53;;;;;;;;;;;;;;;21.74;59.37;100534.34;5061915;28;4070;-78
2023/08/04 07:37:19;;;;;;;;;;;;;;;21.74;59.47;100537.22;5062267;28;4006;-78
2023/08/04 07:39:45;;;;;;;;;;;;;;;21.73;59.43;100541.47;5062770;28;4099;-78
2023/08/04 07:42:12;;;;;;;;;;;;;;;21.73;59.65;100541.47;5061682;28;4071;-78
2023/08/04 07:44:38;;;;;;;;;;;;;;;21.74;59.37;100545.13;5063050;28;4292;-78
2023/08/04 07:47:05;;;;;;;;;;;;;;;21.74;59.33;100548.00;5032248;28;4066;-78
2023/08/04 07:49:31;;;;;;;;;;;;;;;21.73;59.18;100541.47;5061585;28;3907;-78
2023/08/04 07:51:58;;;;;;;;;;;;;;;21.73;59.41;100550.13;5049860;28;4281;-78
2023/08/04 07:54:24;;;;;;;;;;;;;;;21.74;59.59;100534.34;5044155;28;4399;-77
2023/08/04 07:56:50;;;;;;;;;;;;;;;21.74;59.37;100542.97;5061320;28;4002;-78
2023/08/04 07:59:17;;;;;;;;;;;;;;;21.74;59.67;100554.50;5061629;28;4097;-78
2023/08/04 08:01:43;;;;;;;;;;;;;;;21.74;59.25;100563.16;5060835;28;3965;-78
2023/08/04 08:04:10;;;;;;;;;;;;;;;21.74;59.24;100562.41;5062691;28;4014;-78
2023/08/04 08:06:40;;;;;;;;;;;;;;;21.74;59.28;100557.38;5042239;28;4101;-79
2023/08/04 08:09:07;;;;;;;;;;;;;;;21.75;59.33;100558.13;5060741;28;4140;-78
2023/08/04 08:11:33;;;;;;;;;;;;;;;21.74;59.30;100571.78;5062166;28;4078;-78
2023/08/04 08:14:00;;;;;;;;;;;;;;;21.75;59.29;100576.16;5043591;28;4833;-78
2023/08/04 08:16:26;;;;;;;;;;;;;;;21.75;59.41;100573.25;5060961;28;3947;-79
2023/08/04 08:18:53;;;;;;;;;;;;;;;21.75;59.28;100566.75;5060758;28;4440;-78
2023/08/04 08:21:19;;;;;;;;;;;;;;;21.76;59.41;100571.13;5045062;28;4087;-78
2023/08/04 08:23:46;;;;;;;;;;;;;;;21.74;59.35;100580.44;5060771;28;4151;-77
2023/08/04 08:26:12;;;;;;;;;;;;;;;21.76;59.16;100576.88;5054042;28;4957;-78
2023/08/04 08:28:38;;;;;;;;;;;;;;;21.75;59.25;100581.19;5060730;28;4185;-78
2023/08/04 08:31:05;;;;;;;;;;;;;;;21.74;59.43;100585.47;5062132;28;4008;-78
2023/08/04 08:33:31;;;;;;;;;;;;;;;21.75;59.43;100593.44;5060747;28;4054;-78
2023/08/04 08:35:58;;;;;;;;;;;;;;;21.75;59.24;100584.78;5059798;28;4075;-78
2023/08/04 08:38:25;;;;;;;;;;;;;;;21.75;59.25;100596.31;5060158;28;4035;-78
2023/08/04 08:40:51;;;;;;;;;;;;;;;21.75;59.37;100584.06;5030935;28;4265;-79
2023/08/04 08:43:18;;;;;;;;;;;;;;;21.75;59.22;100589.81;5059992;28;4104;-78
2023/08/04 08:45:44;;;;;;;;;;;;;;;21.75;59.13;100592.69;5060143;28;4363;-78
2023/08/04 08:48:11;;;;;;;;;;;;;;;21.75;59.23;100599.19;5061272;28;3910;-78
2023/08/04 08:50:38;;;;;;;;;;;;;;;21.75;59.33;100601.34;5058925;28;3877;-79
2023/08/04 08:53:14;;;;;;;;;;;;;;;21.75;59.48;100604.22;5035431;28;4182;-78
2023/08/04 08:55:40;;;;;;;;;;;;;;;21.75;59.30;100604.22;5060056;28;3970;-78
2023/08/04 08:58:07;;;;;;;;;;;;;;;21.74;59.16;100609.25;5060435;28;4652;-79
2023/08/04 09:00:33;;;;;;;;;;;;;;;21.75;59.12;100601.34;5060047;28;4174;-78
2023/08/04 09:03:00;;;;;;;;;;;;;;;21.75;59.29;100599.19;5060067;28;4253;-78
2023/08/04 09:05:27;;;;;;;;;;;;;;;21.75;59.09;100604.97;5034328;28;3894;-78
2023/08/04 09:07:53;;;;;;;;;;;;;;;21.75;59.12;100604.97;5047948;28;4178;-78
2023/08/04 09:10:21;;;;;;;;;;;;;;;21.75;59.40;100596.31;5059757;28;4033;-78
2023/08/04 09:12:50;;;;;;;;;;;;;;;21.77;59.42;100612.22;5061048;28;4432;-78
2023/08/04 09:15:17;;;;;;;;;;;;;;;21.77;59.04;100617.97;5060849;28;4044;-78
2023/08/04 09:17:44;;;;;;;;;;;;;;;21.76;59.22;100617.22;5041258;28;4293;-78
2023/08/04 09:20:26;;;;;;;;;;;;;;;21.77;59.27;100623.75;5060588;28;4020;-78
2023/08/04 09:22:52;;;;;;;;;;;;;;;21.77;59.22;100609.34;5059307;28;4004;-78
2023/08/04 09:25:18;;;;;;;;;;;;;;;21.75;59.25;100616.50;5035007;28;3920;-78
2023/08/04 09:27:49;;;;;;;;;;;;;;;21.77;59.34;100617.97;5029570;28;4326;-78
2023/08/04 09:30:16;;;;;;;;;;;;;;;21.78;59.11;100619.44;5059890;28;4399;-78
2023/08/04 09:32:43;;;;;;;;;;;;;;;21.78;59.51;100625.22;5058901;28;4684;-78
2023/08/04 09:35:10;;;;;;;;;;;;;;;21.77;59.11;100623.75;5060401;28;5694;-78
2023/08/04 09:37:36;;;;;;;;;;;;;;;21.77;59.11;100632.41;5059699;28;4316;-78
2023/08/04 09:40:04;;;;;;;;;;;;;;;21.75;59.47;100639.56;5042349;28;4507;-78
2023/08/04 09:42:31;;;;;;;;;;;;;;;21.76;59.27;100640.28;5059525;28;4073;-79
2023/08/04 09:44:57;;;;;;;;;;;;;;;21.76;59.12;100651.81;5042659;28;4275;-79
2023/08/04 09:47:24;;;;;;;;;;;;;;;21.77;59.08;100652.56;5059777;28;4367;-79
2023/08/04 09:49:50;;;;;;;;;;;;;;;21.77;59.20;100647.53;5042782;28;4108;-78
2023/08/04 09:52:21;;;;;;;;;;;;;;;21.77;59.11;100653.31;5041837;28;4172;-78
2023/08/04 09:54:48;;;;;;;;;;;;;;;21.77;59.28;100653.31;5041197;28;4833;-78
2023/08/04 09:57:14;;;;;;;;;;;;;;;21.78;59.13;100648.28;5060964;28;4058;-78
2023/08/04 09:59:40;;;;;;;;;;;;;;;21.78;59.31;100654.03;5059566;28;4104;-78
2023/08/04 10:02:07;;;;;;;;;;;;;;;21.77;59.15;100646.81;5030151;28;3892;-78
2023/08/04 10:04:34;;;;;;;;;;;;;;;21.77;59.11;100646.81;5060088;28;3997;-78
2023/08/04 10:07:00;;;;;;;;;;;;;;;21.77;59.19;100646.81;5013580;28;4124;-78
2023/08/04 10:09:27;;;;;;;;;;;;;;;21.77;59.03;100641.03;5029054;28;4406;-78
2023/08/04 10:11:53;;;;;;;;;;;;;;;21.76;59.05;100634.53;5031884;28;4088;-78
2023/08/04 10:14:20;;;;;;;;;;;;;;;21.76;59.37;100634.53;5060007;28;4365;-79
2023/08/04 10:16:46;;;;;;;;;;;;;;;21.75;59.22;100636.66;5040561;28;4082;-77
2023/08/04 10:19:13;;;;;;;;;;;;;;;21.76;59.11;100646.03;5059770;28;4427;-79
2023/08/04 10:21:40;;;;;;;;;;;;;;;21.77;58.98;100652.56;5058971;28;4012;-78
2023/08/04 10:24:10;;;;;;;;;;;;;;;21.77;59.32;100653.31;5058944;28;4043;-78
2023/08/04 10:26:45;;;;;;;;;;;;;;;21.75;59.12;100653.97;5029367;28;4101;-78
2023/08/04 10:29:12;;;;;;;;;;;;;;;21.77;59.29;100646.81;5061376;28;4057;-78
2023/08/04 10:31:47;;;;;;;;;;;;;;;21.77;58.98;100652.56;5062940;28;4218;-78
2023/08/04 10:34:19;;;;;;;;;;;;;;;21.77;59.20;100658.34;5063422;28;4145;-77
2023/08/04 10:36:56;;;;;;;;;;;;;;;21.75;59.11;100656.84;5035723;28;4275;-77
2023/08/04 10:39:30;;;;;;;;;;;;;;;21.77;59.11;100661.22;5034274;28;4513;-78
2023/08/04 10:41:58;;;;;;;;;;;;;;;21.78;59.08;100665.56;5034604;28;4061;-78
2023/08/04 10:44:27;;;;;;;;;;;;;;;21.76;59.40;100663.34;5063389;28;4112;-78
2023/08/04 10:47:05;;;;;;;;;;;;;;;21.77;59.27;100659.06;5061611;28;3971;-78
2023/08/04 10:49:32;;;;;;;;;;;;;;;21.77;59.19;100664.09;5045378;28;4237;-78
2023/08/04 10:51:59;;;;;;;;;;;;;;;21.77;59.25;100658.34;5044971;28;4022;-77
2023/08/04 10:54:25;;;;;;;;;;;;;;;21.77;59.34;100650.41;5062589;28;3943;-78
2023/08/04 10:56:52;;;;;;;;;;;;;;;21.77;59.11;100652.56;5045629;28;4082;-78
2023/08/04 10:59:18;;;;;;;;;;;;;;;21.77;59.08;100652.56;5043998;28;4027;-78
2023/08/04 11:01:45;;;;;;;;;;;;;;;21.77;59.00;100653.31;5062972;28;4052;-78
2023/08/04 11:04:12;;;;;;;;;;;;;;;21.78;59.16;100651.16;5062850;28;4043;-79
2023/08/04 11:06:39;;;;;;;;;;;;;;;21.78;59.33;100642.50;5062623;28;4133;-78
2023/08/04 11:09:05;;;;;;;;;;;;;;;21.77;59.08;100641.03;5063034;28;4077;-79
2023/08/04 11:11:32;;;;;;;;;;;;;;;21.78;59.36;100631.72;5062870;28;4224;-79
2023/08/04 11:13:58;;;;;;;;;;;;;;;21.78;59.16;100637.47;5016923;28;4125;-78
2023/08/04 11:16:25;;;;;;;;;;;;;;;21.78;59.00;100631.72;5034798;28;4156;-78
2023/08/04 11:18:54;;;;;;;;;;;;;;;21.78;59.04;100625.22;5061683;28;4479;-79
2023/08/04 11:21:20;;;;;;;;;;;;;;;21.78;59.30;100636.75;5028008;28;4040;-79
2023/08/04 11:23:47;;;;;;;;;;;;;;;21.78;59.07;100630.97;5049808;28;4150;-78
2023/08/04 11:26:14;;;;;;;;;;;;;;;21.77;59.02;100632.41;5045162;28;4062;-78
2023/08/04 11:28:40;;;;;;;;;;;;;;;21.78;59.39;100637.47;5061017;28;4329;-78
2023/08/04 11:31:08;;;;;;;;;;;;;;;21.78;59.01;100639.63;5062241;28;4048;-79
2023/08/04 11:33:34;;;;;;;;;;;;;;;21.78;59.12;100642.50;5038150;28;4554;-78
2023/08/04 11:36:03;;;;;;;;;;;;;;;21.79;59.00;100638.25;5062059;28;4126;-78
2023/08/04 11:38:30;;;;;;;;;;;;;;;21.79;59.12;100644.00;5062341;28;4320;-78
2023/08/04 11:40:59;;;;;;;;;;;;;;;21.79;58.95;100644.00;5061651;28;4301;-79
2023/08/04 11:43:26;;;;;;;;;;;;;;;21.79;59.20;100644.75;5060812;28;4101;-78
2023/08/04 11:45:54;;;;;;;;;;;;;;;21.78;59.19;100645.38;5060428;28;4561;-79
2023/08/04 11:48:24;;;;;;;;;;;;;;;21.79;59.08;100653.38;5045217;28;4356;-78
2023/08/04 11:50:52;;;;;;;;;;;;;;;21.78;59.07;100654.03;5034685;28;4523;-78
2023/08/04 11:53:18;;;;;;;;;;;;;;;21.78;59.35;100654.78;5063195;28;4652;-78
2023/08/04 11:55:52;;;;;;;;;;;;;;;21.78;59.19;100654.78;5060922;28;4017;-79
2023/08/04 11:58:27;;;;;;;;;;;;;;;21.78;59.07;100666.28;5061930;28;4213;-79
2023/08/04 12:00:54;;;;;;;;;;;;;;;21.79;59.36;100658.41;5061842;28;4084;-78
2023/08/04 12:03:20;;;;;;;;;;;;;;;21.79;59.20;100667.78;5061519;28;4039;-78
2023/08/04 12:05:47;;;;;;;;;;;;;;;21.79;59.06;100661.28;5061766;28;4391;-79
2023/08/04 12:08:14;;;;;;;;;;;;;;;21.79;59.38;100661.28;5061329;28;4008;-79
2023/08/04 12:10:40;;;;;;;;;;;;;;;21.79;59.08;100673.56;5060354;28;4485;-78
2023/08/04 12:13:07;;;;;;;;;;;;;;;21.79;59.03;100681.47;5060476;28;5096;-79
2023/08/04 12:15:52;;;;;;;;;;;;;;;21.80;59.33;100682.94;5061125;28;4990;-79
2023/08/04 12:18:22;;;;;;;;;;;;;;;21.80;59.01;100685.81;5062119;28;4106;-69
2023/08/04 12:20:48;;;;;;;;;;;;;;;21.79;58.97;100685.09;5060702;28;4301;-70
2023/08/04 12:23:15;;;;;;;;;;;;;;;21.81;59.32;100684.44;5062453;28;4014;-69
2023/08/04 12:25:41;;;;;;;;;;;;;;;21.80;59.26;100680.78;5059433;28;4307;-70
2023/08/04 12:28:08;;;;;;;;;;;;;;;21.81;59.29;100698.84;5062405;28;4508;-69
2023/08/04 12:30:34;;;;;;;;;;;;;;;21.81;58.94;100693.06;5059707;28;4089;-69
2023/08/04 12:33:00;;;;;;;;;;;;;;;21.80;59.23;100689.44;5060652;28;4134;-69
2023/08/04 12:35:27;;;;;;;;;;;;;;;21.80;59.19;100691.59;5061246;28;4238;-69
2023/08/04 12:37:53;;;;;;;;;;;;;;;21.81;58.94;100687.31;5060807;28;4010;-69
2023/08/04 12:40:20;;;;;;;;;;;;;;;21.80;58.97;100685.81;5059785;28;4047;-69
2023/08/04 12:42:46;;;;;;;;;;;;;;;21.81;59.09;100687.31;5060121;28;4169;-69
2023/08/04 12:45:13;;;;;;;;;;;;;;;21.81;59.19;100699.56;5060232;28;4167;-69
2023/08/04 12:47:39;;;;;;;;;;;;;;;21.81;59.12;100693.06;5059873;28;4166;-69